Rosice, Czech Republic
Current Conditions -  °F | °C
As of 9:00 PM on Sunday 23 Nov 2014 (Local Time) from LKNA Reporting Station
Overcast Overcast  
Wind Chill: 31°   Ceiling: 1300
Heat Index: 37°   Visibility: 4mi
Dew Point: 36°   Wind: 9mph
Humidity: 93%   Direction: 140°SE
Pressure: 30.33"   Gusts: NA
Location:  49.18°N, 16.38°E
Report Text: LKNA 231900Z 14008KT 7000 OVC013 03/02 Q1027 NOSIG
Loading
Personal Weather Stations






























Interactive Weather Map New forecast layout! Learn more

10-Day Weather Forecast

Advertisements
Track Severe Weather on mobile